sensor_id;sensor_type;location;lat;lon;timestamp;P1;durP1;ratioP1;P2;durP2;ratioP2
24995;SDS011;13016;52.162;21.034;2023-03-17T00:00:39;34.60;;;18.30;;
24995;SDS011;13016;52.162;21.034;2023-03-17T00:03:06;34.70;;;18.90;;
24995;SDS011;13016;52.162;21.034;2023-03-17T00:05:46;31.40;;;16.70;;
24995;SDS011;13016;52.162;21.034;2023-03-17T00:08:14;33.90;;;17.70;;
24995;SDS011;13016;52.162;21.034;2023-03-17T00:11:00;34.50;;;18.10;;
24995;SDS011;13016;52.162;21.034;2023-03-17T00:13:28;35.60;;;18.60;;
24995;SDS011;13016;52.162;21.034;2023-03-17T00:15:55;31.30;;;18.30;;
24995;SDS011;13016;52.162;21.034;2023-03-17T00:18:26;38.10;;;19.80;;
24995;SDS011;13016;52.162;21.034;2023-03-17T00:20:54;68.90;;;42.80;;
24995;SDS011;13016;52.162;21.034;2023-03-17T00:23:47;59.00;;;32.50;;
24995;SDS011;13016;52.162;21.034;2023-03-17T00:26:14;40.40;;;22.20;;
24995;SDS011;13016;52.162;21.034;2023-03-17T00:28:39;34.50;;;20.00;;
24995;SDS011;13016;52.162;21.034;2023-03-17T00:31:27;36.50;;;20.20;;
24995;SDS011;13016;52.162;21.034;2023-03-17T00:34:04;37.70;;;20.40;;
24995;SDS011;13016;52.162;21.034;2023-03-17T00:36:30;40.40;;;20.20;;
24995;SDS011;13016;52.162;21.034;2023-03-17T00:38:57;38.30;;;20.10;;
24995;SDS011;13016;52.162;21.034;2023-03-17T00:41:23;40.30;;;21.30;;
24995;SDS011;13016;52.162;21.034;2023-03-17T00:43:50;38.40;;;20.80;;
24995;SDS011;13016;52.162;21.034;2023-03-17T00:46:17;38.00;;;20.30;;
24995;SDS011;13016;52.162;21.034;2023-03-17T00:48:55;40.00;;;22.60;;
24995;SDS011;13016;52.162;21.034;2023-03-17T00:51:20;36.50;;;21.20;;
24995;SDS011;13016;52.162;21.034;2023-03-17T00:53:47;44.30;;;21.40;;
24995;SDS011;13016;52.162;21.034;2023-03-17T00:56:13;39.80;;;21.70;;
24995;SDS011;13016;52.162;21.034;2023-03-17T00:58:42;42.00;;;21.90;;
24995;SDS011;13016;52.162;21.034;2023-03-17T01:01:08;46.00;;;22.40;;
24995;SDS011;13016;52.162;21.034;2023-03-17T01:03:35;37.00;;;21.50;;
24995;SDS011;13016;52.162;21.034;2023-03-17T01:06:02;42.00;;;21.80;;
24995;SDS011;13016;52.162;21.034;2023-03-17T01:08:29;36.60;;;20.60;;
24995;SDS011;13016;52.162;21.034;2023-03-17T01:10:55;36.90;;;21.10;;
24995;SDS011;13016;52.162;21.034;2023-03-17T01:13:21;44.10;;;20.80;;
24995;SDS011;13016;52.162;21.034;2023-03-17T01:16:10;38.60;;;20.60;;
24995;SDS011;13016;52.162;21.034;2023-03-17T01:18:56;40.00;;;21.80;;
24995;SDS011;13016;52.162;21.034;2023-03-17T01:21:22;40.00;;;20.40;;
24995;SDS011;13016;52.162;21.034;2023-03-17T01:23:48;37.40;;;20.30;;
24995;SDS011;13016;52.162;21.034;2023-03-17T01:26:14;28.20;;;16.00;;
24995;SDS011;13016;52.162;21.034;2023-03-17T01:28:40;30.80;;;17.40;;
24995;SDS011;13016;52.162;21.034;2023-03-17T01:31:05;32.30;;;16.50;;
24995;SDS011;13016;52.162;21.034;2023-03-17T01:33:30;27.00;;;16.40;;
24995;SDS011;13016;52.162;21.034;2023-03-17T01:35:55;31.80;;;17.40;;
24995;SDS011;13016;52.162;21.034;2023-03-17T01:38:24;30.90;;;16.90;;
24995;SDS011;13016;52.162;21.034;2023-03-17T01:40:49;29.50;;;16.60;;
24995;SDS011;13016;52.162;21.034;2023-03-17T01:43:17;31.20;;;18.00;;
24995;SDS011;13016;52.162;21.034;2023-03-17T01:49:03;30.60;;;17.60;;
24995;SDS011;13016;52.162;21.034;2023-03-17T01:57:18;30.10;;;17.30;;
24995;SDS011;13016;52.162;21.034;2023-03-17T02:00:29;33.40;;;18.00;;
24995;SDS011;13016;52.162;21.034;2023-03-17T02:02:55;30.50;;;17.90;;
24995;SDS011;13016;52.162;21.034;2023-03-17T02:05:27;38.00;;;18.30;;
24995;SDS011;13016;52.162;21.034;2023-03-17T02:07:55;35.40;;;19.30;;
24995;SDS011;13016;52.162;21.034;2023-03-17T02:10:23;36.40;;;19.40;;
24995;SDS011;13016;52.162;21.034;2023-03-17T02:13:14;38.30;;;21.70;;
24995;SDS011;13016;52.162;21.034;2023-03-17T02:15:41;41.50;;;22.70;;
24995;SDS011;13016;52.162;21.034;2023-03-17T02:18:09;42.20;;;22.90;;
24995;SDS011;13016;52.162;21.034;2023-03-17T02:23:00;41.90;;;22.20;;
24995;SDS011;13016;52.162;21.034;2023-03-17T02:25:27;50.00;;;24.30;;
24995;SDS011;13016;52.162;21.034;2023-03-17T02:27:55;68.40;;;27.60;;
24995;SDS011;13016;52.162;21.034;2023-03-17T02:30:26;61.70;;;27.50;;
24995;SDS011;13016;52.162;21.034;2023-03-17T02:32:56;71.50;;;28.70;;
24995;SDS011;13016;52.162;21.034;2023-03-17T02:35:21;62.10;;;28.70;;
24995;SDS011;13016;52.162;21.034;2023-03-17T02:37:50;57.50;;;27.20;;
24995;SDS011;13016;52.162;21.034;2023-03-17T02:40:16;52.10;;;26.90;;
24995;SDS011;13016;52.162;21.034;2023-03-17T02:42:41;54.10;;;27.10;;
24995;SDS011;13016;52.162;21.034;2023-03-17T02:45:07;50.50;;;27.00;;
24995;SDS011;13016;52.162;21.034;2023-03-17T02:47:39;57.20;;;27.90;;
24995;SDS011;13016;52.162;21.034;2023-03-17T02:50:05;56.40;;;27.70;;
24995;SDS011;13016;52.162;21.034;2023-03-17T02:52:32;51.50;;;26.40;;
24995;SDS011;13016;52.162;21.034;2023-03-17T02:54:58;58.90;;;28.40;;
24995;SDS011;13016;52.162;21.034;2023-03-17T02:57:23;53.70;;;28.70;;
24995;SDS011;13016;52.162;21.034;2023-03-17T02:59:48;56.20;;;28.60;;
24995;SDS011;13016;52.162;21.034;2023-03-17T03:02:38;51.90;;;28.20;;
24995;SDS011;13016;52.162;21.034;2023-03-17T03:05:05;56.90;;;29.30;;
24995;SDS011;13016;52.162;21.034;2023-03-17T03:07:31;56.70;;;28.80;;
24995;SDS011;13016;52.162;21.034;2023-03-17T03:09:57;57.30;;;28.80;;
24995;SDS011;13016;52.162;21.034;2023-03-17T03:12:23;53.30;;;27.30;;
24995;SDS011;13016;52.162;21.034;2023-03-17T03:14:48;58.60;;;29.60;;
24995;SDS011;13016;52.162;21.034;2023-03-17T03:17:17;55.30;;;27.80;;
24995;SDS011;13016;52.162;21.034;2023-03-17T03:19:42;59.40;;;29.10;;
24995;SDS011;13016;52.162;21.034;2023-03-17T03:22:08;58.30;;;28.60;;
24995;SDS011;13016;52.162;21.034;2023-03-17T03:24:33;57.90;;;29.10;;
24995;SDS011;13016;52.162;21.034;2023-03-17T03:26:59;53.30;;;28.80;;
24995;SDS011;13016;52.162;21.034;2023-03-17T03:29:24;54.60;;;29.30;;
24995;SDS011;13016;52.162;21.034;2023-03-17T03:31:49;58.80;;;31.00;;
24995;SDS011;13016;52.162;21.034;2023-03-17T03:34:15;58.50;;;30.80;;
24995;SDS011;13016;52.162;21.034;2023-03-17T03:36:44;59.90;;;30.40;;
24995;SDS011;13016;52.162;21.034;2023-03-17T03:39:34;57.20;;;29.20;;
24995;SDS011;13016;52.162;21.034;2023-03-17T03:41:59;61.30;;;31.20;;
24995;SDS011;13016;52.162;21.034;2023-03-17T03:44:45;58.40;;;31.00;;
24995;SDS011;13016;52.162;21.034;2023-03-17T03:47:30;58.00;;;30.60;;
24995;SDS011;13016;52.162;21.034;2023-03-17T03:49:55;64.10;;;32.00;;
24995;SDS011;13016;52.162;21.034;2023-03-17T03:52:20;61.80;;;31.60;;
24995;SDS011;13016;52.162;21.034;2023-03-17T03:54:46;57.60;;;31.20;;
24995;SDS011;13016;52.162;21.034;2023-03-17T03:57:11;64.50;;;32.90;;
24995;SDS011;13016;52.162;21.034;2023-03-17T03:59:37;62.00;;;31.80;;
24995;SDS011;13016;52.162;21.034;2023-03-17T04:02:02;59.90;;;33.10;;
24995;SDS011;13016;52.162;21.034;2023-03-17T04:04:27;59.90;;;32.50;;
24995;SDS011;13016;52.162;21.034;2023-03-17T04:06:52;60.60;;;32.40;;
24995;SDS011;13016;52.162;21.034;2023-03-17T04:09:18;64.80;;;32.80;;
24995;SDS011;13016;52.162;21.034;2023-03-17T04:11:45;65.60;;;32.90;;
24995;SDS011;13016;52.162;21.034;2023-03-17T04:14:10;58.90;;;32.00;;
24995;SDS011;13016;52.162;21.034;2023-03-17T04:16:35;65.30;;;33.10;;
24995;SDS011;13016;52.162;21.034;2023-03-17T04:19:01;59.60;;;32.40;;
24995;SDS011;13016;52.162;21.034;2023-03-17T04:21:26;61.50;;;32.50;;
24995;SDS011;13016;52.162;21.034;2023-03-17T04:23:51;65.50;;;32.20;;
24995;SDS011;13016;52.162;21.034;2023-03-17T04:26:16;61.20;;;31.80;;
24995;SDS011;13016;52.162;21.034;2023-03-17T04:29:09;60.30;;;31.60;;
24995;SDS011;13016;52.162;21.034;2023-03-17T04:31:35;58.80;;;30.70;;
24995;SDS011;13016;52.162;21.034;2023-03-17T04:34:02;57.00;;;30.50;;
24995;SDS011;13016;52.162;21.034;2023-03-17T04:36:27;62.00;;;30.10;;
24995;SDS011;13016;52.162;21.034;2023-03-17T04:38:53;58.90;;;30.90;;
24995;SDS011;13016;52.162;21.034;2023-03-17T04:41:18;61.70;;;30.20;;
24995;SDS011;13016;52.162;21.034;2023-03-17T04:43:44;58.90;;;30.70;;
24995;SDS011;13016;52.162;21.034;2023-03-17T04:46:10;59.40;;;29.90;;
24995;SDS011;13016;52.162;21.034;2023-03-17T04:48:35;58.80;;;30.20;;
24995;SDS011;13016;52.162;21.034;2023-03-17T04:51:01;60.70;;;29.40;;
24995;SDS011;13016;52.162;21.034;2023-03-17T04:53:26;56.80;;;30.50;;
24995;SDS011;13016;52.162;21.034;2023-03-17T04:55:51;64.40;;;30.50;;
24995;SDS011;13016;52.162;21.034;2023-03-17T04:58:17;63.00;;;31.00;;
24995;SDS011;13016;52.162;21.034;2023-03-17T05:00:43;66.70;;;31.40;;
24995;SDS011;13016;52.162;21.034;2023-03-17T05:03:08;59.60;;;31.00;;
24995;SDS011;13016;52.162;21.034;2023-03-17T05:05:33;54.40;;;29.20;;
24995;SDS011;13016;52.162;21.034;2023-03-17T05:07:59;58.20;;;30.00;;
24995;SDS011;13016;52.162;21.034;2023-03-17T05:10:24;57.80;;;30.60;;
24995;SDS011;13016;52.162;21.034;2023-03-17T05:12:50;58.30;;;30.00;;
24995;SDS011;13016;52.162;21.034;2023-03-17T05:15:16;54.20;;;28.70;;
24995;SDS011;13016;52.162;21.034;2023-03-17T05:17:41;58.00;;;29.70;;
24995;SDS011;13016;52.162;21.034;2023-03-17T05:20:09;48.50;;;26.80;;
24995;SDS011;13016;52.162;21.034;2023-03-17T05:22:48;53.60;;;27.80;;
24995;SDS011;13016;52.162;21.034;2023-03-17T05:25:21;51.70;;;27.40;;
24995;SDS011;13016;52.162;21.034;2023-03-17T05:27:47;57.80;;;28.80;;
24995;SDS011;13016;52.162;21.034;2023-03-17T05:30:13;54.10;;;27.60;;
24995;SDS011;13016;52.162;21.034;2023-03-17T05:32:42;48.20;;;27.40;;
24995;SDS011;13016;52.162;21.034;2023-03-17T05:35:07;53.90;;;29.70;;
24995;SDS011;13016;52.162;21.034;2023-03-17T05:37:33;48.50;;;25.80;;
24995;SDS011;13016;52.162;21.034;2023-03-17T05:39:59;48.80;;;26.80;;
24995;SDS011;13016;52.162;21.034;2023-03-17T05:42:24;53.00;;;28.30;;
24995;SDS011;13016;52.162;21.034;2023-03-17T05:44:51;50.00;;;27.70;;
24995;SDS011;13016;52.162;21.034;2023-03-17T05:47:16;51.80;;;27.60;;
24995;SDS011;13016;52.162;21.034;2023-03-17T05:49:42;49.10;;;26.40;;
24995;SDS011;13016;52.162;21.034;2023-03-17T05:52:14;46.50;;;26.40;;
24995;SDS011;13016;52.162;21.034;2023-03-17T05:54:40;51.90;;;26.50;;
24995;SDS011;13016;52.162;21.034;2023-03-17T05:57:06;49.80;;;26.40;;
24995;SDS011;13016;52.162;21.034;2023-03-17T05:59:32;50.40;;;27.30;;
24995;SDS011;13016;52.162;21.034;2023-03-17T06:01:58;49.80;;;26.80;;
24995;SDS011;13016;52.162;21.034;2023-03-17T06:04:25;50.90;;;27.20;;
24995;SDS011;13016;52.162;21.034;2023-03-17T06:06:50;48.40;;;26.40;;
24995;SDS011;13016;52.162;21.034;2023-03-17T06:09:20;51.70;;;27.10;;
24995;SDS011;13016;52.162;21.034;2023-03-17T06:12:06;49.20;;;27.00;;
24995;SDS011;13016;52.162;21.034;2023-03-17T06:14:37;53.30;;;28.40;;
24995;SDS011;13016;52.162;21.034;2023-03-17T06:17:23;46.30;;;26.50;;
24995;SDS011;13016;52.162;21.034;2023-03-17T06:19:48;48.20;;;26.20;;
24995;SDS011;13016;52.162;21.034;2023-03-17T06:22:14;45.80;;;23.50;;
24995;SDS011;13016;52.162;21.034;2023-03-17T06:24:39;39.10;;;23.10;;
24995;SDS011;13016;52.162;21.034;2023-03-17T06:27:07;35.00;;;20.20;;
24995;SDS011;13016;52.162;21.034;2023-03-17T06:29:32;40.20;;;21.90;;
24995;SDS011;13016;52.162;21.034;2023-03-17T06:31:57;37.30;;;20.60;;
24995;SDS011;13016;52.162;21.034;2023-03-17T06:34:24;35.00;;;19.40;;
24995;SDS011;13016;52.162;21.034;2023-03-17T06:36:49;33.40;;;19.30;;
24995;SDS011;13016;52.162;21.034;2023-03-17T06:39:14;42.10;;;22.00;;
24995;SDS011;13016;52.162;21.034;2023-03-17T06:41:40;45.10;;;24.50;;
24995;SDS011;13016;52.162;21.034;2023-03-17T06:44:07;43.10;;;23.30;;
24995;SDS011;13016;52.162;21.034;2023-03-17T06:46:52;39.50;;;22.60;;
24995;SDS011;13016;52.162;21.034;2023-03-17T06:49:37;39.40;;;23.50;;
24995;SDS011;13016;52.162;21.034;2023-03-17T06:52:07;42.60;;;23.10;;
24995;SDS011;13016;52.162;21.034;2023-03-17T06:54:33;41.60;;;22.40;;
24995;SDS011;13016;52.162;21.034;2023-03-17T06:57:03;39.80;;;23.50;;
24995;SDS011;13016;52.162;21.034;2023-03-17T06:59:28;43.40;;;24.20;;
24995;SDS011;13016;52.162;21.034;2023-03-17T07:01:53;43.30;;;25.20;;
24995;SDS011;13016;52.162;21.034;2023-03-17T07:04:19;36.40;;;22.80;;
24995;SDS011;13016;52.162;21.034;2023-03-17T07:06:44;36.60;;;21.60;;
24995;SDS011;13016;52.162;21.034;2023-03-17T07:09:09;39.20;;;22.70;;
24995;SDS011;13016;52.162;21.034;2023-03-17T07:11:34;38.40;;;21.10;;
24995;SDS011;13016;52.162;21.034;2023-03-17T07:14:00;32.60;;;19.10;;
24995;SDS011;13016;52.162;21.034;2023-03-17T07:16:25;27.10;;;16.10;;
24995;SDS011;13016;52.162;21.034;2023-03-17T07:18:51;25.60;;;15.00;;
24995;SDS011;13016;52.162;21.034;2023-03-17T07:21:36;25.30;;;15.20;;
24995;SDS011;13016;52.162;21.034;2023-03-17T07:24:21;27.10;;;15.80;;
24995;SDS011;13016;52.162;21.034;2023-03-17T07:26:55;23.10;;;14.60;;
24995;SDS011;13016;52.162;21.034;2023-03-17T07:29:30;30.10;;;17.40;;
24995;SDS011;13016;52.162;21.034;2023-03-17T07:31:55;27.10;;;16.70;;
24995;SDS011;13016;52.162;21.034;2023-03-17T07:34:21;31.00;;;16.70;;
24995;SDS011;13016;52.162;21.034;2023-03-17T07:36:46;31.30;;;17.10;;
24995;SDS011;13016;52.162;21.034;2023-03-17T07:39:11;28.20;;;16.30;;
24995;SDS011;13016;52.162;21.034;2023-03-17T07:41:36;30.00;;;16.50;;
24995;SDS011;13016;52.162;21.034;2023-03-17T07:44:02;29.00;;;16.20;;
24995;SDS011;13016;52.162;21.034;2023-03-17T07:46:27;31.30;;;16.60;;
24995;SDS011;13016;52.162;21.034;2023-03-17T07:48:52;26.20;;;14.50;;
24995;SDS011;13016;52.162;21.034;2023-03-17T07:51:37;28.90;;;17.80;;
24995;SDS011;13016;52.162;21.034;2023-03-17T07:54:02;32.50;;;17.80;;
24995;SDS011;13016;52.162;21.034;2023-03-17T07:56:31;33.90;;;18.30;;
24995;SDS011;13016;52.162;21.034;2023-03-17T07:58:57;30.50;;;18.30;;
24995;SDS011;13016;52.162;21.034;2023-03-17T08:01:30;26.60;;;14.90;;
24995;SDS011;13016;52.162;21.034;2023-03-17T08:03:55;29.90;;;16.00;;
24995;SDS011;13016;52.162;21.034;2023-03-17T08:06:26;23.60;;;14.30;;
24995;SDS011;13016;52.162;21.034;2023-03-17T08:09:26;27.70;;;16.10;;
24995;SDS011;13016;52.162;21.034;2023-03-17T08:12:16;23.20;;;13.70;;
24995;SDS011;13016;52.162;21.034;2023-03-17T08:14:41;20.40;;;11.90;;
24995;SDS011;13016;52.162;21.034;2023-03-17T08:17:07;16.90;;;10.10;;
24995;SDS011;13016;52.162;21.034;2023-03-17T08:19:32;17.60;;;10.50;;
24995;SDS011;13016;52.162;21.034;2023-03-17T08:21:57;16.70;;;9.60;;
24995;SDS011;13016;52.162;21.034;2023-03-17T08:24:23;15.00;;;9.30;;
24995;SDS011;13016;52.162;21.034;2023-03-17T08:27:28;16.00;;;9.60;;
24995;SDS011;13016;52.162;21.034;2023-03-17T08:29:53;18.30;;;8.40;;
24995;SDS011;13016;52.162;21.034;2023-03-17T08:32:19;13.80;;;7.70;;
24995;SDS011;13016;52.162;21.034;2023-03-17T08:34:44;13.50;;;7.30;;
24995;SDS011;13016;52.162;21.034;2023-03-17T08:37:29;12.90;;;7.30;;
24995;SDS011;13016;52.162;21.034;2023-03-17T08:39:55;11.10;;;7.00;;
24995;SDS011;13016;52.162;21.034;2023-03-17T08:42:20;12.00;;;6.30;;
24995;SDS011;13016;52.162;21.034;2023-03-17T08:44:45;11.00;;;6.70;;
24995;SDS011;13016;52.162;21.034;2023-03-17T08:47:10;11.60;;;6.60;;
24995;SDS011;13016;52.162;21.034;2023-03-17T08:50:01;13.10;;;6.70;;
24995;SDS011;13016;52.162;21.034;2023-03-17T08:52:32;10.20;;;6.70;;
24995;SDS011;13016;52.162;21.034;2023-03-17T08:57:32;12.00;;;6.40;;
24995;SDS011;13016;52.162;21.034;2023-03-17T08:59:57;10.40;;;6.60;;
24995;SDS011;13016;52.162;21.034;2023-03-17T09:03:02;8.80;;;6.00;;
24995;SDS011;13016;52.162;21.034;2023-03-17T09:05:27;10.40;;;5.80;;
24995;SDS011;13016;52.162;21.034;2023-03-17T09:07:52;10.40;;;5.80;;
24995;SDS011;13016;52.162;21.034;2023-03-17T09:10:18;9.10;;;5.50;;
24995;SDS011;13016;52.162;21.034;2023-03-17T09:12:43;11.10;;;5.50;;
24995;SDS011;13016;52.162;21.034;2023-03-17T09:15:09;9.70;;;5.80;;
24995;SDS011;13016;52.162;21.034;2023-03-17T09:17:40;9.00;;;5.70;;
24995;SDS011;13016;52.162;21.034;2023-03-17T09:20:05;8.00;;;4.40;;
24995;SDS011;13016;52.162;21.034;2023-03-17T09:22:31;7.60;;;5.20;;
24995;SDS011;13016;52.162;21.034;2023-03-17T09:24:56;6.40;;;4.80;;
24995;SDS011;13016;52.162;21.034;2023-03-17T09:27:21;8.70;;;4.90;;
24995;SDS011;13016;52.162;21.034;2023-03-17T09:29:47;9.80;;;4.80;;
24995;SDS011;13016;52.162;21.034;2023-03-17T09:32:12;10.90;;;4.90;;
24995;SDS011;13016;52.162;21.034;2023-03-17T09:34:37;7.40;;;4.50;;
24995;SDS011;13016;52.162;21.034;2023-03-17T09:37:02;7.90;;;4.80;;
24995;SDS011;13016;52.162;21.034;2023-03-17T09:39:28;7.70;;;4.20;;
24995;SDS011;13016;52.162;21.034;2023-03-17T09:50:53;8.20;;;4.40;;
24995;SDS011;13016;52.162;21.034;2023-03-17T09:53:29;7.20;;;4.40;;
24995;SDS011;13016;52.162;21.034;2023-03-17T09:56:15;8.50;;;5.00;;
24995;SDS011;13016;52.162;21.034;2023-03-17T09:58:46;7.80;;;4.60;;
24995;SDS011;13016;52.162;21.034;2023-03-17T10:01:34;6.10;;;4.00;;
24995;SDS011;13016;52.162;21.034;2023-03-17T10:04:03;8.80;;;4.50;;
24995;SDS011;13016;52.162;21.034;2023-03-17T10:06:38;9.30;;;4.60;;
24995;SDS011;13016;52.162;21.034;2023-03-17T10:12:07;9.40;;;5.20;;
24995;SDS011;13016;52.162;21.034;2023-03-17T10:15:17;8.80;;;4.60;;
24995;SDS011;13016;52.162;21.034;2023-03-17T10:18:10;9.60;;;5.40;;
24995;SDS011;13016;52.162;21.034;2023-03-17T10:20:52;8.60;;;5.10;;
24995;SDS011;13016;52.162;21.034;2023-03-17T10:23:28;10.90;;;5.70;;
24995;SDS011;13016;52.162;21.034;2023-03-17T10:26:00;8.80;;;5.40;;
24995;SDS011;13016;52.162;21.034;2023-03-17T10:28:33;11.20;;;5.40;;
24995;SDS011;13016;52.162;21.034;2023-03-17T10:31:33;11.20;;;5.30;;
24995;SDS011;13016;52.162;21.034;2023-03-17T10:33:53;7.50;;;5.30;;
24995;SDS011;13016;52.162;21.034;2023-03-17T10:36:33;10.30;;;5.00;;
24995;SDS011;13016;52.162;21.034;2023-03-17T10:39:06;10.30;;;4.60;;
24995;SDS011;13016;52.162;21.034;2023-03-17T10:41:37;8.10;;;4.10;;
24995;SDS011;13016;52.162;21.034;2023-03-17T10:44:19;8.90;;;5.00;;
24995;SDS011;13016;52.162;21.034;2023-03-17T10:46:54;8.80;;;4.90;;
24995;SDS011;13016;52.162;21.034;2023-03-17T10:49:20;9.60;;;5.20;;
24995;SDS011;13016;52.162;21.034;2023-03-17T10:51:45;10.10;;;5.00;;
24995;SDS011;13016;52.162;21.034;2023-03-17T10:54:17;8.30;;;4.70;;
24995;SDS011;13016;52.162;21.034;2023-03-17T10:56:45;8.90;;;5.20;;
24995;SDS011;13016;52.162;21.034;2023-03-17T10:59:25;11.50;;;5.00;;
24995;SDS011;13016;52.162;21.034;2023-03-17T11:04:57;10.20;;;5.10;;
24995;SDS011;13016;52.162;21.034;2023-03-17T11:07:38;12.70;;;6.10;;
24995;SDS011;13016;52.162;21.034;2023-03-17T11:10:16;9.60;;;5.30;;
24995;SDS011;13016;52.162;21.034;2023-03-17T11:12:59;8.50;;;5.10;;
24995;SDS011;13016;52.162;21.034;2023-03-17T11:15:36;11.60;;;5.90;;
24995;SDS011;13016;52.162;21.034;2023-03-17T11:20:53;11.70;;;5.80;;
24995;SDS011;13016;52.162;21.034;2023-03-17T11:45:53;13.50;;;7.00;;
24995;SDS011;13016;52.162;21.034;2023-03-17T11:50:58;16.30;;;7.40;;
24995;SDS011;13016;52.162;21.034;2023-03-17T11:53:54;12.20;;;6.70;;
24995;SDS011;13016;52.162;21.034;2023-03-17T11:56:51;11.40;;;6.60;;
24995;SDS011;13016;52.162;21.034;2023-03-17T12:07:54;14.90;;;7.90;;
24995;SDS011;13016;52.162;21.034;2023-03-17T12:13:15;13.20;;;7.80;;
24995;SDS011;13016;52.162;21.034;2023-03-17T12:16:04;14.80;;;7.60;;
24995;SDS011;13016;52.162;21.034;2023-03-17T12:18:43;15.60;;;8.10;;
24995;SDS011;13016;52.162;21.034;2023-03-17T12:21:37;15.20;;;8.40;;
24995;SDS011;13016;52.162;21.034;2023-03-17T12:24:12;16.10;;;8.20;;
24995;SDS011;13016;52.162;21.034;2023-03-17T12:29:39;13.20;;;7.30;;
24995;SDS011;13016;52.162;21.034;2023-03-17T12:32:15;15.50;;;8.50;;
24995;SDS011;13016;52.162;21.034;2023-03-17T12:34:45;14.40;;;7.90;;
24995;SDS011;13016;52.162;21.034;2023-03-17T12:37:27;12.60;;;7.40;;
24995;SDS011;13016;52.162;21.034;2023-03-17T12:40:06;13.00;;;7.40;;
24995;SDS011;13016;52.162;21.034;2023-03-17T12:42:55;12.50;;;7.70;;
24995;SDS011;13016;52.162;21.034;2023-03-17T12:46:03;16.10;;;7.50;;
24995;SDS011;13016;52.162;21.034;2023-03-17T12:54:19;14.60;;;7.80;;
24995;SDS011;13016;52.162;21.034;2023-03-17T12:57:17;11.30;;;6.70;;
24995;SDS011;13016;52.162;21.034;2023-03-17T12:59:45;11.60;;;6.00;;
24995;SDS011;13016;52.162;21.034;2023-03-17T13:05:03;10.20;;;5.90;;
24995;SDS011;13016;52.162;21.034;2023-03-17T13:07:33;11.00;;;6.10;;
24995;SDS011;13016;52.162;21.034;2023-03-17T13:10:10;9.40;;;5.60;;
24995;SDS011;13016;52.162;21.034;2023-03-17T13:26:01;8.40;;;5.00;;
24995;SDS011;13016;52.162;21.034;2023-03-17T13:33:44;13.60;;;6.30;;
24995;SDS011;13016;52.162;21.034;2023-03-17T13:47:24;13.00;;;7.20;;
24995;SDS011;13016;52.162;21.034;2023-03-17T13:49:48;14.60;;;8.10;;
24995;SDS011;13016;52.162;21.034;2023-03-17T13:54:57;16.90;;;8.00;;
24995;SDS011;13016;52.162;21.034;2023-03-17T13:59:58;13.00;;;7.20;;
24995;SDS011;13016;52.162;21.034;2023-03-17T14:02:47;11.80;;;6.50;;
24995;SDS011;13016;52.162;21.034;2023-03-17T14:05:23;11.90;;;6.20;;
24995;SDS011;13016;52.162;21.034;2023-03-17T14:07:57;12.70;;;6.70;;
24995;SDS011;13016;52.162;21.034;2023-03-17T14:10:30;11.30;;;6.70;;
24995;SDS011;13016;52.162;21.034;2023-03-17T14:13:10;11.60;;;6.70;;
24995;SDS011;13016;52.162;21.034;2023-03-17T14:15:41;19.00;;;10.40;;
24995;SDS011;13016;52.162;21.034;2023-03-17T14:18:16;14.70;;;8.50;;
24995;SDS011;13016;52.162;21.034;2023-03-17T14:20:58;11.90;;;6.80;;
24995;SDS011;13016;52.162;21.034;2023-03-17T14:23:28;15.50;;;6.60;;
24995;SDS011;13016;52.162;21.034;2023-03-17T14:26:03;10.70;;;6.50;;
24995;SDS011;13016;52.162;21.034;2023-03-17T14:32:04;10.90;;;6.40;;
24995;SDS011;13016;52.162;21.034;2023-03-17T14:35:58;12.80;;;7.10;;
24995;SDS011;13016;52.162;21.034;2023-03-17T14:39:32;10.00;;;6.30;;
24995;SDS011;13016;52.162;21.034;2023-03-17T14:43:08;12.20;;;6.50;;
24995;SDS011;13016;52.162;21.034;2023-03-17T14:45:42;12.70;;;6.70;;
24995;SDS011;13016;52.162;21.034;2023-03-17T14:48:21;13.00;;;7.00;;
24995;SDS011;13016;52.162;21.034;2023-03-17T14:50:51;13.20;;;6.30;;
24995;SDS011;13016;52.162;21.034;2023-03-17T14:53:27;13.70;;;6.60;;
24995;SDS011;13016;52.162;21.034;2023-03-17T14:56:02;12.70;;;6.50;;
24995;SDS011;13016;52.162;21.034;2023-03-17T14:58:42;16.00;;;6.90;;
24995;SDS011;13016;52.162;21.034;2023-03-17T15:01:15;11.80;;;7.10;;
24995;SDS011;13016;52.162;21.034;2023-03-17T15:04:15;14.10;;;7.40;;
24995;SDS011;13016;52.162;21.034;2023-03-17T15:07:41;11.70;;;7.10;;
24995;SDS011;13016;52.162;21.034;2023-03-17T15:21:25;14.20;;;6.90;;
24995;SDS011;13016;52.162;21.034;2023-03-17T15:24:03;13.60;;;6.30;;
24995;SDS011;13016;52.162;21.034;2023-03-17T15:26:35;11.30;;;6.00;;
24995;SDS011;13016;52.162;21.034;2023-03-17T15:29:02;12.30;;;6.50;;
24995;SDS011;13016;52.162;21.034;2023-03-17T15:31:27;10.70;;;5.90;;
24995;SDS011;13016;52.162;21.034;2023-03-17T15:33:53;11.50;;;5.90;;
24995;SDS011;13016;52.162;21.034;2023-03-17T15:36:21;11.80;;;6.20;;
24995;SDS011;13016;52.162;21.034;2023-03-17T15:38:46;11.40;;;6.10;;
24995;SDS011;13016;52.162;21.034;2023-03-17T15:41:11;12.40;;;6.10;;
24995;SDS011;13016;52.162;21.034;2023-03-17T15:43:37;11.30;;;6.10;;
24995;SDS011;13016;52.162;21.034;2023-03-17T15:46:03;9.40;;;5.80;;
24995;SDS011;13016;52.162;21.034;2023-03-17T15:48:32;10.20;;;5.80;;
24995;SDS011;13016;52.162;21.034;2023-03-17T15:50:59;14.70;;;6.20;;
24995;SDS011;13016;52.162;21.034;2023-03-17T15:53:33;12.60;;;6.40;;
24995;SDS011;13016;52.162;21.034;2023-03-17T15:55:59;11.80;;;6.60;;
24995;SDS011;13016;52.162;21.034;2023-03-17T15:58:24;13.20;;;6.70;;
24995;SDS011;13016;52.162;21.034;2023-03-17T16:00:50;12.20;;;6.40;;
24995;SDS011;13016;52.162;21.034;2023-03-17T16:03:23;12.30;;;6.00;;
24995;SDS011;13016;52.162;21.034;2023-03-17T16:15:36;12.60;;;5.90;;
24995;SDS011;13016;52.162;21.034;2023-03-17T16:18:04;11.00;;;6.30;;
24995;SDS011;13016;52.162;21.034;2023-03-17T16:20:41;12.50;;;7.20;;
24995;SDS011;13016;52.162;21.034;2023-03-17T16:23:11;9.00;;;5.50;;
24995;SDS011;13016;52.162;21.034;2023-03-17T16:25:42;11.30;;;5.90;;
24995;SDS011;13016;52.162;21.034;2023-03-17T16:28:13;10.40;;;5.80;;
24995;SDS011;13016;52.162;21.034;2023-03-17T16:30:41;9.50;;;6.00;;
24995;SDS011;13016;52.162;21.034;2023-03-17T16:35:48;8.10;;;5.30;;
24995;SDS011;13016;52.162;21.034;2023-03-17T16:39:52;10.20;;;5.50;;
24995;SDS011;13016;52.162;21.034;2023-03-17T16:42:20;10.80;;;5.70;;
24995;SDS011;13016;52.162;21.034;2023-03-17T16:44:58;11.20;;;6.00;;
24995;SDS011;13016;52.162;21.034;2023-03-17T16:47:35;9.50;;;5.40;;
24995;SDS011;13016;52.162;21.034;2023-03-17T16:50:05;11.50;;;5.60;;
24995;SDS011;13016;52.162;21.034;2023-03-17T16:52:54;11.30;;;5.80;;
24995;SDS011;13016;52.162;21.034;2023-03-17T16:56:08;9.30;;;5.40;;
24995;SDS011;13016;52.162;21.034;2023-03-17T16:59:41;12.00;;;6.30;;
24995;SDS011;13016;52.162;21.034;2023-03-17T17:03:36;9.20;;;5.70;;
24995;SDS011;13016;52.162;21.034;2023-03-17T17:07:16;9.30;;;5.90;;
24995;SDS011;13016;52.162;21.034;2023-03-17T17:10:57;14.30;;;6.40;;